Terminal Aerodrome Forecast
Issued by NWS

Home | Current Version | Previous Version | Text Only | Print | Product List | Glossary On
Versions: 1 2 3 4 5 6 7 8 9 10 11 12 13 14 15 16 17 18
000
FTUS42 KGSP 192300
TAFAND
TAF
KAND 192340Z 2000/2024 04013G21KT P6SM -RA SCT040 OVC060
     FM200400 04015G23KT P6SM BKN025 OVC035
     FM200800 03013KT P6SM OVC050
     FM202100 06011KT P6SM SCT060
     FM202300 05007KT P6SM SCT250=

USA.gov is the U.S. government's official web portal to all federal, state and local government web resources and services.